Terminal Aerodrome Forecast
Issued by NWS

Home | Current Version | Previous Version | Text Only | Print | Product List | Glossary On
Versions: 1 2 3 4 5 6 7 8 9 10 11 12 13 14 15 16 17 18 19 20 21 22 23 24 25 26 27 28 29 30 31 32 33 34 35
000
FTUS43 KMKX 231120
TAFUES
TAF
KUES 231120Z 2312/2412 15004KT 5SM BR SCT250
     FM231300 19006KT P6SM BKN250
     FM231600 17006KT P6SM BKN090
     FM232000 18009KT P6SM -SHRA OVC045
     FM240000 20009KT P6SM VCSH SCT025 OVC035
     FM240300 21005KT P6SM OVC025
     FM240500 VRB03KT 5SM BR BKN025
     FM240900 VRB03KT 4SM BR SCT025=

USA.gov is the U.S. government's official web portal to all federal, state and local government web resources and services.